Time,TemperatureF,DewpointF,PressureIn,WindDirection,WindDirectionDegrees,WindSpeedMPH,WindSpeedGustMPH,Humidity,HourlyPrecipIn,Conditions,Clouds,dailyrainin,SoftwareType,DateUTC
2013-01-15 00:00:00,32.0,27.1,30.35,NNE,18,0.0,2.0,82,0.00,,,-99.99,Weather View 32 v60,2013-01-15 08:00:00,
2013-01-15 00:05:00,31.8,26.9,30.35,NNE,18,0.0,2.0,82,0.00,,,-99.99,Weather View 32 v60,2013-01-15 08:05:00,
2013-01-15 00:10:00,31.5,26.9,30.35,NNE,18,0.0,2.0,83,0.00,,,-99.99,Weather View 32 v60,2013-01-15 08:10:00,
2013-01-15 00:15:00,31.8,27.5,30.35,NNE,25,0.0,2.0,84,0.00,,,-99.99,Weather View 32 v60,2013-01-15 08:15:00,
2013-01-15 00:20:00,31.8,27.5,30.35,NE,52,0.0,2.0,84,0.00,,,-99.99,Weather View 32 v60,2013-01-15 08:20:00,
2013-01-15 00:25:00,31.8,27.5,30.36,ENE,66,1.0,2.0,84,0.00,,,-99.99,Weather View 32 v60,2013-01-15 08:25:00,
2013-01-15 00:30:00,31.6,27.3,30.35,NE,52,2.0,2.0,84,0.00,,,-99.99,Weather View 32 v60,2013-01-15 08:30:00,
2013-01-15 00:35:00,31.4,27.1,30.36,ENE,59,1.0,3.0,84,0.00,,,-99.99,Weather View 32 v60,2013-01-15 08:35:00,
2013-01-15 00:40:00,31.1,26.8,30.36,ENE,59,0.0,3.0,84,0.00,,,-99.99,Weather View 32 v60,2013-01-15 08:40:00,
2013-01-15 00:45:00,31.0,27.0,30.36,ENE,59,0.0,3.0,85,0.00,,,-99.99,Weather View 32 v60,2013-01-15 08:45:00,
2013-01-15 00:50:00,30.9,26.9,30.36,NE,47,2.0,3.0,85,0.00,,,-99.99,Weather View 32 v60,2013-01-15 08:50:00,
2013-01-15 00:55:00,30.9,26.9,30.36,ENE,61,1.0,3.0,85,0.00,,,-99.99,Weather View 32 v60,2013-01-15 08:55:00,
2013-01-15 01:00:00,30.9,26.9,30.36,ENE,65,1.0,3.0,85,0.00,,,-99.99,Weather View 32 v60,2013-01-15 09:00:00,
2013-01-15 01:05:00,30.9,26.9,30.36,SE,142,0.0,3.0,85,0.00,,,-99.99,Weather View 32 v60,2013-01-15 09:05:00,
2013-01-15 01:10:00,30.9,27.2,30.37,SE,142,0.0,3.0,86,0.00,,,-99.99,Weather View 32 v60,2013-01-15 09:10:00,
2013-01-15 01:15:00,30.9,27.2,30.37,SE,142,0.0,3.0,86,0.00,,,-99.99,Weather View 32 v60,2013-01-15 09:15:00,
2013-01-15 01:20:00,30.7,27.0,30.37,NE,44,1.0,3.0,86,0.00,,,-99.99,Weather View 32 v60,2013-01-15 09:20:00,
2013-01-15 01:25:00,30.6,26.9,30.37,NE,37,1.0,3.0,86,0.00,,,-99.99,Weather View 32 v60,2013-01-15 09:25:00,
2013-01-15 01:30:00,30.5,26.8,30.37,NE,53,1.0,3.0,86,0.00,,,-99.99,Weather View 32 v60,2013-01-15 09:30:00,
2013-01-15 01:35:00,30.6,26.9,30.37,NE,35,1.0,3.0,86,0.00,,,-99.99,Weather View 32 v60,2013-01-15 09:35:00,
2013-01-15 01:45:00,30.8,27.1,30.37,NW,315,3.0,3.0,86,0.00,,,-99.99,Weather View 32 v60,2013-01-15 09:45:00,
2013-01-15 01:55:00,30.9,27.2,30.37,NW,314,2.0,3.0,86,0.00,,,-99.99,Weather View 32 v60,2013-01-15 09:55:00,
2013-01-15 02:05:00,30.6,26.9,30.37,North,2,1.0,3.0,86,0.00,,,-99.99,Weather View 32 v60,2013-01-15 10:05:00,
2013-01-15 02:42:00,30.7,27.0,30.37,NNW,331,2.0,3.0,86,0.00,,,-99.99,Weather View 32 v60,2013-01-15 10:42:00,
2013-01-15 02:45:00,30.0,26.9,30.38,NNE,19,1.0,3.0,88,0.00,,,-99.99,Weather View 32 v60,2013-01-15 10:45:00,
2013-01-15 02:52:00,30.8,27.1,30.37,WNW,301,2.0,3.0,86,0.00,,,-99.99,Weather View 32 v60,2013-01-15 10:52:00,
2013-01-15 02:55:00,30.0,26.9,30.38,NE,34,0.0,2.0,88,0.00,,,-99.99,Weather View 32 v60,2013-01-15 10:55:00,
2013-01-15 03:02:00,30.8,27.1,30.37,NW,325,0.0,3.0,86,0.00,,,-99.99,Weather View 32 v60,2013-01-15 11:02:00,
2013-01-15 03:08:00,30.6,26.9,30.37,North,2,1.0,3.0,86,0.00,,,-99.99,Weather View 32 v60,2013-01-15 11:08:00,
2013-01-15 03:10:00,29.5,26.7,30.38,North,359,0.0,2.0,89,0.00,,,-99.99,Weather View 32 v60,2013-01-15 11:10:00,
2013-01-15 03:15:00,29.5,26.7,30.37,North,359,0.0,2.0,89,0.00,,,-99.99,Weather View 32 v60,2013-01-15 11:15:00,
2013-01-15 03:17:00,30.2,26.8,30.37,North,10,1.0,3.0,87,0.00,,,-99.99,Weather View 32 v60,2013-01-15 11:17:00,
2013-01-15 03:20:00,29.7,26.9,30.38,North,359,0.0,2.0,89,0.00,,,-99.99,Weather View 32 v60,2013-01-15 11:20:00,
2013-01-15 03:22:00,30.2,26.8,30.37,NE,39,1.0,3.0,87,0.00,,,-99.99,Weather View 32 v60,2013-01-15 11:22:00,
2013-01-15 03:27:00,30.5,27.4,30.37,ENE,60,2.0,3.0,88,0.00,,,-99.99,Weather View 32 v60,2013-01-15 11:27:00,
2013-01-15 03:30:00,29.7,26.9,30.38,ENE,64,2.0,2.0,89,0.00,,,-99.99,Weather View 32 v60,2013-01-15 11:30:00,
2013-01-15 03:32:00,30.4,27.0,30.38,NNE,18,2.0,3.0,87,0.00,,,-99.99,Weather View 32 v60,2013-01-15 11:32:00,
2013-01-15 03:35:00,29.8,27.0,30.38,NE,47,2.0,4.0,89,0.00,,,-99.99,Weather View 32 v60,2013-01-15 11:35:00,
2013-01-15 03:37:00,30.2,26.8,30.38,North,11,2.0,3.0,87,0.00,,,-99.99,Weather View 32 v60,2013-01-15 11:37:00,
2013-01-15 03:40:00,29.8,27.0,30.38,East,84,1.0,4.0,89,0.00,,,-99.99,Weather View 32 v60,2013-01-15 11:40:00,
2013-01-15 03:42:00,30.0,26.9,30.38,NNE,30,2.0,3.0,88,0.00,,,-99.99,Weather View 32 v60,2013-01-15 11:42:00,
2013-01-15 03:52:00,30.1,27.0,30.38,NE,34,0.0,3.0,88,0.00,,,-99.99,Weather View 32 v60,2013-01-15 11:52:00,
2013-01-15 04:02:00,29.8,26.7,30.38,NE,34,0.0,2.0,88,0.00,,,-99.99,Weather View 32 v60,2013-01-15 12:02:00,
2013-01-15 04:05:00,29.2,26.4,30.38,NW,307,2.0,4.0,89,0.00,,,-99.99,Weather View 32 v60,2013-01-15 12:05:00,
2013-01-15 04:07:00,29.7,26.6,30.38,NNE,28,0.0,2.0,88,0.00,,,-99.99,Weather View 32 v60,2013-01-15 12:07:00,
2013-01-15 04:10:00,29.4,26.6,30.38,NNW,330,2.0,4.0,89,0.00,,,-99.99,Weather View 32 v60,2013-01-15 12:10:00,
2013-01-15 04:27:00,29.8,27.0,30.38,North,359,0.0,2.0,89,0.00,,,-99.99,Weather View 32 v60,2013-01-15 12:27:00,
2013-01-15 04:30:00,29.3,26.5,30.38,NNE,26,0.0,4.0,89,0.00,,,-99.99,Weather View 32 v60,2013-01-15 12:30:00,
2013-01-15 04:45:00,29.1,26.5,30.38,NW,310,1.0,3.0,90,0.00,,,-99.99,Weather View 32 v60,2013-01-15 12:45:00,
2013-01-15 04:47:00,29.6,26.8,30.38,East,84,0.0,4.0,89,0.00,,,-99.99,Weather View 32 v60,2013-01-15 12:47:00,
2013-01-15 04:52:00,29.5,26.7,30.38,East,84,0.0,4.0,89,0.00,,,-99.99,Weather View 32 v60,2013-01-15 12:52:00,
2013-01-15 04:57:00,29.3,26.5,30.38,East,84,0.0,4.0,89,0.00,,,-99.99,Weather View 32 v60,2013-01-15 12:57:00,
2013-01-15 05:02:00,29.1,26.3,30.38,East,84,0.0,4.0,89,0.00,,,-99.99,Weather View 32 v60,2013-01-15 13:02:00,
2013-01-15 05:09:00,29.2,26.4,30.38,NW,307,2.0,4.0,89,0.00,,,-99.99,Weather View 32 v60,2013-01-15 13:09:00,
2013-01-15 05:10:00,29.4,26.8,30.39,NNW,337,1.0,3.0,90,0.00,,,-99.99,Weather View 32 v60,2013-01-15 13:10:00,
2013-01-15 05:17:00,29.5,26.7,30.38,NNW,345,1.0,4.0,89,0.00,,,-99.99,Weather View 32 v60,2013-01-15 13:17:00,
2013-01-15 05:25:00,29.2,26.6,30.40,NNW,336,2.0,3.0,90,0.00,,,-99.99,Weather View 32 v60,2013-01-15 13:25:00,
2013-01-15 05:27:00,29.4,26.6,30.38,NNE,33,1.0,4.0,89,0.00,,,-99.99,Weather View 32 v60,2013-01-15 13:27:00,
2013-01-15 05:37:00,29.1,26.3,30.38,NNE,26,0.0,4.0,89,0.00,,,-99.99,Weather View 32 v60,2013-01-15 13:37:00,
2013-01-15 05:42:00,28.9,26.1,30.38,NNE,26,0.0,3.0,89,0.00,,,-99.99,Weather View 32 v60,2013-01-15 13:42:00,
2013-01-15 05:52:00,29.3,26.7,30.38,WNW,286,2.0,3.0,90,0.00,,,-99.99,Weather View 32 v60,2013-01-15 13:52:00,
2013-01-15 05:57:00,29.4,26.8,30.38,WNW,283,0.0,3.0,90,0.00,,,-99.99,Weather View 32 v60,2013-01-15 13:57:00,
2013-01-15 06:00:00,28.6,26.3,30.41,NNW,336,0.0,2.0,91,0.00,,,-99.99,Weather View 32 v60,2013-01-15 14:00:00,
2013-01-15 06:05:00,28.6,26.3,30.40,NNW,336,1.0,2.0,91,0.00,,,-99.99,Weather View 32 v60,2013-01-15 14:05:00,
2013-01-15 06:07:00,29.3,26.7,30.39,NW,321,1.0,3.0,90,0.00,,,-99.99,Weather View 32 v60,2013-01-15 14:07:00,
2013-01-15 06:10:00,28.8,26.5,30.40,SW,227,1.0,2.0,91,0.00,,,-99.99,Weather View 32 v60,2013-01-15 14:10:00,
2013-01-15 06:17:00,29.4,26.8,30.39,NNW,337,1.0,3.0,90,0.00,,,-99.99,Weather View 32 v60,2013-01-15 14:17:00,
2013-01-15 06:20:00,29.0,26.7,30.41,South,172,0.0,2.0,91,0.00,,,-99.99,Weather View 32 v60,2013-01-15 14:20:00,
2013-01-15 06:22:00,29.4,26.8,30.39,NNW,336,1.0,3.0,90,0.00,,,-99.99,Weather View 32 v60,2013-01-15 14:22:00,
2013-01-15 06:25:00,28.9,26.6,30.41,South,173,0.0,2.0,91,0.00,,,-99.99,Weather View 32 v60,2013-01-15 14:25:00,
2013-01-15 06:30:00,28.8,26.5,30.41,South,173,1.0,2.0,91,0.00,,,-99.99,Weather View 32 v60,2013-01-15 14:30:00,
2013-01-15 06:32:00,29.0,26.4,30.40,NNW,336,0.0,3.0,90,0.00,,,-99.99,Weather View 32 v60,2013-01-15 14:32:00,
2013-01-15 06:37:00,28.9,26.3,30.40,NNW,336,0.0,3.0,90,0.00,,,-99.99,Weather View 32 v60,2013-01-15 14:37:00,
2013-01-15 06:42:00,28.9,26.6,30.40,NNW,337,0.0,3.0,91,0.00,,,-99.99,Weather View 32 v60,2013-01-15 14:42:00,
2013-01-15 06:45:00,29.1,26.8,30.41,NW,316,2.0,2.0,91,0.00,,,-99.99,Weather View 32 v60,2013-01-15 14:45:00,
2013-01-15 06:47:00,28.8,26.2,30.40,NNW,336,0.0,3.0,90,0.00,,,-99.99,Weather View 32 v60,2013-01-15 14:47:00,
2013-01-15 06:57:00,28.7,26.4,30.40,NNW,336,0.0,2.0,91,0.00,,,-99.99,Weather View 32 v60,2013-01-15 14:57:00,
2013-01-15 07:00:00,29.9,27.6,30.42,WNW,295,2.0,5.0,91,0.00,,,-99.99,Weather View 32 v60,2013-01-15 15:00:00,
2013-01-15 07:05:00,30.3,28.0,30.42,NW,316,1.0,5.0,91,0.00,,,-99.99,Weather View 32 v60,2013-01-15 15:05:00,
2013-01-15 07:07:00,28.6,26.3,30.40,NNW,336,1.0,2.0,91,0.00,,,-99.99,Weather View 32 v60,2013-01-15 15:07:00,
2013-01-15 07:17:00,28.9,26.6,30.41,SSE,151,1.0,2.0,91,0.00,,,-99.99,Weather View 32 v60,2013-01-15 15:17:00,
2013-01-15 07:25:00,31.6,29.3,30.42,NW,323,1.0,5.0,91,0.00,,,-99.99,Weather View 32 v60,2013-01-15 15:25:00,
2013-01-15 07:37:00,28.9,26.6,30.41,NNW,328,2.0,2.0,91,0.00,,,-99.99,Weather View 32 v60,2013-01-15 15:37:00,
2013-01-15 07:40:00,35.1,32.5,30.43,North,358,1.0,5.0,90,0.00,,,-99.99,Weather View 32 v60,2013-01-15 15:40:00,
2013-01-15 07:42:00,29.0,26.7,30.41,NW,319,1.0,2.0,91,0.00,,,-99.99,Weather View 32 v60,2013-01-15 15:42:00,
2013-01-15 07:50:00,37.1,33.3,30.43,NW,326,2.0,5.0,86,0.00,,,-99.99,Weather View 32 v60,2013-01-15 15:50:00,
2013-01-15 07:52:00,29.3,27.0,30.42,NNW,329,1.0,3.0,91,0.00,,,-99.99,Weather View 32 v60,2013-01-15 15:52:00,
2013-01-15 07:57:00,29.6,27.3,30.42,NNW,337,2.0,3.0,91,0.00,,,-99.99,Weather View 32 v60,2013-01-15 15:57:00,
2013-01-15 08:05:00,37.8,32.2,30.43,NNW,331,2.0,3.0,80,0.00,,,-99.99,Weather View 32 v60,2013-01-15 16:05:00,
2013-01-15 08:07:00,30.3,28.0,30.42,NW,316,1.0,5.0,91,0.00,,,-99.99,Weather View 32 v60,2013-01-15 16:07:00,
2013-01-15 08:12:00,30.5,28.2,30.42,NW,305,2.0,5.0,91,0.00,,,-99.99,Weather View 32 v60,2013-01-15 16:12:00,
2013-01-15 08:15:00,38.6,32.0,30.43,NNW,334,2.0,4.0,77,0.00,,,-99.99,Weather View 32 v60,2013-01-15 16:15:00,
2013-01-15 08:17:00,30.8,28.5,30.42,NNW,327,2.0,5.0,91,0.00,,,-99.99,Weather View 32 v60,2013-01-15 16:17:00,
2013-01-15 08:32:00,32.4,30.1,30.43,NW,325,1.0,5.0,91,0.00,,,-99.99,Weather View 32 v60,2013-01-15 16:32:00,
2013-01-15 08:35:00,41.5,33.1,30.43,NW,319,1.0,5.0,72,0.00,,,-99.99,Weather View 32 v60,2013-01-15 16:35:00,
2013-01-15 08:37:00,33.7,31.6,30.43,North,360,1.0,5.0,92,0.00,,,-99.99,Weather View 32 v60,2013-01-15 16:37:00,
2013-01-15 08:47:00,36.2,33.3,30.43,North,10,0.0,5.0,89,0.00,,,-99.99,Weather View 32 v60,2013-01-15 16:47:00,
2013-01-15 08:55:00,45.8,33.5,30.43,WNW,283,1.0,5.0,62,0.00,,,-99.99,Weather View 32 v60,2013-01-15 16:55:00,
2013-01-15 08:57:00,36.9,32.2,30.43,NW,316,1.0,5.0,83,0.00,,,-99.99,Weather View 32 v60,2013-01-15 16:57:00,
2013-01-15 09:02:00,37.4,32.4,30.43,NW,312,2.0,5.0,82,0.00,,,-99.99,Weather View 32 v60,2013-01-15 17:02:00,
2013-01-15 09:05:00,47.0,33.4,30.43,North,355,0.0,5.0,59,0.00,,,-99.99,Weather View 32 v60,2013-01-15 17:05:00,
2013-01-15 09:07:00,37.8,32.2,30.43,NNW,331,2.0,3.0,80,0.00,,,-99.99,Weather View 32 v60,2013-01-15 17:07:00,
2013-01-15 09:10:00,47.0,33.0,30.43,NW,314,2.0,5.0,58,0.00,,,-99.99,Weather View 32 v60,2013-01-15 17:10:00,
2013-01-15 09:12:00,38.3,32.4,30.43,NW,322,2.0,3.0,79,0.00,,,-99.99,Weather View 32 v60,2013-01-15 17:12:00,
2013-01-15 09:20:00,45.6,32.1,30.43,WNW,295,3.0,5.0,59,0.00,,,-99.99,Weather View 32 v60,2013-01-15 17:20:00,
2013-01-15 09:22:00,39.3,32.4,30.43,NW,322,4.0,4.0,76,0.00,,,-99.99,Weather View 32 v60,2013-01-15 17:22:00,
2013-01-15 09:25:00,45.7,32.6,30.43,NW,308,1.0,7.0,60,0.00,,,-99.99,Weather View 32 v60,2013-01-15 17:25:00,
2013-01-15 09:27:00,39.9,32.3,30.43,WSW,249,3.0,4.0,74,0.00,,,-99.99,Weather View 32 v60,2013-01-15 17:27:00,
2013-01-15 09:32:00,40.2,32.6,30.43,NNW,333,3.0,5.0,74,0.00,,,-99.99,Weather View 32 v60,2013-01-15 17:32:00,
2013-01-15 09:42:00,42.9,33.4,30.43,NW,315,2.0,5.0,69,0.00,,,-99.99,Weather View 32 v60,2013-01-15 17:42:00,
2013-01-15 09:45:00,49.3,33.3,30.42,NNW,336,1.0,7.0,54,0.00,,,-99.99,Weather View 32 v60,2013-01-15 17:45:00,
2013-01-15 09:47:00,43.7,33.4,30.43,North,349,1.0,5.0,67,0.00,,,-99.99,Weather View 32 v60,2013-01-15 17:47:00,
2013-01-15 09:52:00,44.8,33.3,30.43,WNW,303,1.0,5.0,64,0.00,,,-99.99,Weather View 32 v60,2013-01-15 17:52:00,
2013-01-15 10:02:00,45.8,32.7,30.43,SW,235,1.0,5.0,60,0.00,,,-99.99,Weather View 32 v60,2013-01-15 18:02:00,
2013-01-15 10:07:00,47.0,33.4,30.43,North,355,0.0,5.0,59,0.00,,,-99.99,Weather View 32 v60,2013-01-15 18:07:00,
2013-01-15 10:17:00,46.3,32.7,30.43,NW,318,2.0,5.0,59,0.00,,,-99.99,Weather View 32 v60,2013-01-15 18:17:00,
2013-01-15 10:32:00,46.1,32.5,30.42,NNW,331,3.0,7.0,59,0.00,,,-99.99,Weather View 32 v60,2013-01-15 18:32:00,
2013-01-15 10:37:00,47.2,33.2,30.42,NE,46,1.0,7.0,58,0.00,,,-99.99,Weather View 32 v60,2013-01-15 18:37:00,
2013-01-15 10:42:00,48.3,33.3,30.42,West,274,2.0,7.0,56,0.00,,,-99.99,Weather View 32 v60,2013-01-15 18:42:00,
2013-01-15 10:50:00,50.4,32.4,30.39,SSE,152,2.0,6.0,50,0.00,,,-99.99,Weather View 32 v60,2013-01-15 18:50:00,
2013-01-15 10:52:00,50.0,33.0,30.42,WNW,300,3.0,7.0,52,0.00,,,-99.99,Weather View 32 v60,2013-01-15 18:52:00,
2013-01-15 10:55:00,51.1,32.6,30.39,West,269,1.0,6.0,49,0.00,,,-99.99,Weather View 32 v60,2013-01-15 18:55:00,
2013-01-15 10:57:00,49.7,33.2,30.42,WSW,255,2.0,7.0,53,0.00,,,-99.99,Weather View 32 v60,2013-01-15 18:57:00,
2013-01-15 11:02:00,49.0,32.6,30.41,SW,224,2.0,7.0,53,0.00,,,-99.99,Weather View 32 v60,2013-01-15 19:02:00,
2013-01-15 11:07:00,49.4,32.5,30.41,WSW,254,2.0,7.0,52,0.00,,,-99.99,Weather View 32 v60,2013-01-15 19:07:00,
2013-01-15 11:10:00,50.7,32.2,30.39,WSW,252,2.0,7.0,49,0.00,,,-99.99,Weather View 32 v60,2013-01-15 19:10:00,
2013-01-15 11:12:00,48.3,31.5,30.41,SW,215,5.0,7.0,52,0.00,,,-99.99,Weather View 32 v60,2013-01-15 19:12:00,
2013-01-15 11:22:00,49.5,32.1,30.40,WSW,253,1.0,7.0,51,0.00,,,-99.99,Weather View 32 v60,2013-01-15 19:22:00,
2013-01-15 11:27:00,49.6,31.7,30.40,WNW,285,2.0,6.0,50,0.00,,,-99.99,Weather View 32 v60,2013-01-15 19:27:00,
2013-01-15 11:32:00,50.2,31.7,30.40,NNE,14,0.0,6.0,49,0.00,,,-99.99,Weather View 32 v60,2013-01-15 19:32:00,
2013-01-15 11:37:00,51.1,32.1,30.40,South,171,3.0,6.0,48,0.00,,,-99.99,Weather View 32 v60,2013-01-15 19:37:00,
2013-01-15 11:40:00,51.1,32.1,30.38,WNW,287,4.0,8.0,48,0.00,,,-99.99,Weather View 32 v60,2013-01-15 19:40:00,
2013-01-15 11:47:00,50.3,31.8,30.39,SW,225,4.0,6.0,49,0.00,,,-99.99,Weather View 32 v60,2013-01-15 19:47:00,
2013-01-15 12:02:00,50.8,32.3,30.39,SSE,153,2.0,6.0,49,0.00,,,-99.99,Weather View 32 v60,2013-01-15 20:02:00,
2013-01-15 12:07:00,50.2,32.2,30.39,SW,221,2.0,7.0,50,0.00,,,-99.99,Weather View 32 v60,2013-01-15 20:07:00,
2013-01-15 12:13:00,50.7,32.2,30.39,WSW,252,2.0,7.0,49,0.00,,,-99.99,Weather View 32 v60,2013-01-15 20:13:00,
2013-01-15 12:22:00,51.4,31.8,30.38,South,169,3.0,7.0,47,0.00,,,-99.99,Weather View 32 v60,2013-01-15 20:22:00,
2013-01-15 12:27:00,51.4,32.3,30.38,SSE,154,5.0,7.0,48,0.00,,,-99.99,Weather View 32 v60,2013-01-15 20:27:00,
2013-01-15 12:35:00,53.0,28.0,30.36,SE,145,5.0,8.0,38,0.00,,,-99.99,Weather View 32 v60,2013-01-15 20:35:00,
2013-01-15 12:37:00,51.2,31.6,30.38,WSW,246,2.0,8.0,47,0.00,,,-99.99,Weather View 32 v60,2013-01-15 20:37:00,
2013-01-15 12:47:00,51.4,31.8,30.38,East,88,2.0,8.0,47,0.00,,,-99.99,Weather View 32 v60,2013-01-15 20:47:00,
2013-01-15 12:55:00,53.6,28.6,30.36,ESE,112,5.0,9.0,38,0.00,,,-99.99,Weather View 32 v60,2013-01-15 20:55:00,
2013-01-15 12:57:00,52.0,31.3,30.37,SSE,165,5.0,8.0,45,0.00,,,-99.99,Weather View 32 v60,2013-01-15 20:57:00,
2013-01-15 13:02:00,52.6,31.8,30.37,SE,127,4.0,8.0,45,0.00,,,-99.99,Weather View 32 v60,2013-01-15 21:02:00,
2013-01-15 13:05:00,53.9,28.8,30.35,SE,127,1.0,9.0,38,0.00,,,-99.99,Weather View 32 v60,2013-01-15 21:05:00,
2013-01-15 13:07:00,52.8,30.3,30.37,South,169,5.0,8.0,42,0.00,,,-99.99,Weather View 32 v60,2013-01-15 21:07:00,
2013-01-15 13:10:00,54.6,28.1,30.35,SSE,167,6.0,10.0,36,0.00,,,-99.99,Weather View 32 v60,2013-01-15 21:10:00,
2013-01-15 13:14:00,52.8,29.1,30.36,SSW,203,3.0,8.0,40,0.00,,,-99.99,Weather View 32 v60,2013-01-15 21:14:00,
2013-01-15 13:20:00,54.8,29.0,30.35,South,176,5.0,10.0,37,0.00,,,-99.99,Weather View 32 v60,2013-01-15 21:20:00,
2013-01-15 13:22:00,52.9,29.8,30.36,ESE,111,5.0,8.0,41,0.00,,,-99.99,Weather View 32 v60,2013-01-15 21:22:00,
2013-01-15 13:27:00,53.3,29.5,30.36,ESE,107,2.0,8.0,40,0.00,,,-99.99,Weather View 32 v60,2013-01-15 21:27:00,
2013-01-15 13:32:00,53.3,28.3,30.36,SSE,166,4.0,8.0,38,0.00,,,-99.99,Weather View 32 v60,2013-01-15 21:32:00,
2013-01-15 13:35:00,54.9,27.0,30.35,ESE,121,5.0,10.0,34,0.00,,,-99.99,Weather View 32 v60,2013-01-15 21:35:00,
2013-01-15 13:42:00,53.4,29.0,30.36,South,174,5.0,8.0,39,0.00,,,-99.99,Weather View 32 v60,2013-01-15 21:42:00,
2013-01-15 13:47:00,53.7,28.6,30.36,NNW,335,5.0,8.0,38,0.00,,,-99.99,Weather View 32 v60,2013-01-15 21:47:00,
2013-01-15 13:52:00,53.7,28.6,30.36,SE,125,4.0,8.0,38,0.00,,,-99.99,Weather View 32 v60,2013-01-15 21:52:00,
2013-01-15 13:55:00,55.3,26.6,30.34,ESE,120,3.0,10.0,33,0.00,,,-99.99,Weather View 32 v60,2013-01-15 21:55:00,
2013-01-15 14:02:00,53.8,28.7,30.35,South,175,8.0,9.0,38,0.00,,,-99.99,Weather View 32 v60,2013-01-15 22:02:00,
2013-01-15 14:17:00,54.2,29.1,30.35,SW,216,3.0,10.0,38,0.00,,,-99.99,Weather View 32 v60,2013-01-15 22:17:00,
2013-01-15 14:27:00,54.8,27.6,30.35,South,170,4.0,10.0,35,0.00,,,-99.99,Weather View 32 v60,2013-01-15 22:27:00,
2013-01-15 14:30:00,55.9,27.9,30.35,ESE,110,5.0,8.0,34,0.00,,,-99.99,Weather View 32 v60,2013-01-15 22:30:00,
2013-01-15 14:32:00,54.6,28.1,30.35,SSW,209,4.0,10.0,36,0.00,,,-99.99,Weather View 32 v60,2013-01-15 22:32:00,
2013-01-15 14:42:00,55.0,27.1,30.35,South,171,5.0,10.0,34,0.00,,,-99.99,Weather View 32 v60,2013-01-15 22:42:00,
2013-01-15 14:52:00,55.4,27.4,30.34,South,174,4.0,10.0,34,0.00,,,-99.99,Weather View 32 v60,2013-01-15 22:52:00,
2013-01-15 15:02:00,55.8,27.1,30.34,WSW,238,3.0,10.0,33,0.00,,,-99.99,Weather View 32 v60,2013-01-15 23:02:00,
2013-01-15 15:05:00,55.4,28.8,30.35,South,170,4.0,9.0,36,0.00,,,-99.99,Weather View 32 v60,2013-01-15 23:05:00,
2013-01-15 15:07:00,55.5,27.5,30.34,SSE,167,4.0,10.0,34,0.00,,,-99.99,Weather View 32 v60,2013-01-15 23:07:00,
2013-01-15 15:15:00,55.6,27.6,30.35,SSW,207,5.0,10.0,34,0.00,,,-99.99,Weather View 32 v60,2013-01-15 23:15:00,
2013-01-15 15:22:00,55.1,27.2,30.35,ESE,113,5.0,8.0,34,0.00,,,-99.99,Weather View 32 v60,2013-01-15 23:22:00,
2013-01-15 15:27:00,55.3,28.1,30.35,SSE,164,5.0,8.0,35,0.00,,,-99.99,Weather View 32 v60,2013-01-15 23:27:00,
2013-01-15 15:37:00,55.6,27.6,30.35,SE,136,5.0,9.0,34,0.00,,,-99.99,Weather View 32 v60,2013-01-15 23:37:00,
2013-01-15 15:40:00,53.5,29.1,30.35,South,178,4.0,9.0,39,0.00,,,-99.99,Weather View 32 v60,2013-01-15 23:40:00,
2013-01-15 15:42:00,55.8,27.8,30.35,South,170,4.0,9.0,34,0.00,,,-99.99,Weather View 32 v60,2013-01-15 23:42:00,
2013-01-15 15:47:00,55.9,27.9,30.35,ESE,111,5.0,9.0,34,0.00,,,-99.99,Weather View 32 v60,2013-01-15 23:47:00,
2013-01-15 15:52:00,55.6,28.3,30.35,SSE,149,4.0,9.0,35,0.00,,,-99.99,Weather View 32 v60,2013-01-15 23:52:00,
2013-01-15 16:02:00,55.5,28.9,30.35,SSE,154,5.0,9.0,36,0.00,,,-99.99,Weather View 32 v60,2013-01-16 00:02:00,
2013-01-15 16:12:00,55.2,28.7,30.35,SE,124,5.0,9.0,36,0.00,,,-99.99,Weather View 32 v60,2013-01-16 00:12:00,
2013-01-15 16:22:00,54.8,29.6,30.35,SSE,162,4.0,9.0,38,0.00,,,-99.99,Weather View 32 v60,2013-01-16 00:22:00,
2013-01-15 16:32:00,54.2,29.1,30.35,SE,137,4.0,9.0,38,0.00,,,-99.99,Weather View 32 v60,2013-01-16 00:32:00,
2013-01-15 16:37:00,54.0,29.6,30.35,SSE,164,5.0,9.0,39,0.00,,,-99.99,Weather View 32 v60,2013-01-16 00:37:00,
2013-01-15 16:47:00,53.0,29.9,30.36,SSE,154,3.0,9.0,41,0.00,,,-99.99,Weather View 32 v60,2013-01-16 00:47:00,
2013-01-15 16:52:00,52.6,29.5,30.36,SE,144,6.0,9.0,41,0.00,,,-99.99,Weather View 32 v60,2013-01-16 00:52:00,
2013-01-15 16:57:00,52.4,29.9,30.36,SSE,156,4.0,9.0,42,0.00,,,-99.99,Weather View 32 v60,2013-01-16 00:57:00,
2013-01-15 17:02:00,52.1,30.2,30.36,SSE,162,3.0,9.0,43,0.00,,,-99.99,Weather View 32 v60,2013-01-16 01:02:00,
2013-01-15 17:07:00,51.6,29.8,30.36,SSE,159,5.0,9.0,43,0.00,,,-99.99,Weather View 32 v60,2013-01-16 01:07:00,
2013-01-15 17:12:00,51.2,30.0,30.36,SSE,158,4.0,10.0,44,0.00,,,-99.99,Weather View 32 v60,2013-01-16 01:12:00,
2013-01-15 17:17:00,50.9,30.3,30.36,SE,140,5.0,10.0,45,0.00,,,-99.99,Weather View 32 v60,2013-01-16 01:17:00,
2013-01-15 17:22:00,50.4,30.4,30.36,SE,134,5.0,10.0,46,0.00,,,-99.99,Weather View 32 v60,2013-01-16 01:22:00,
2013-01-15 17:27:00,50.1,30.1,30.36,SE,144,2.0,10.0,46,0.00,,,-99.99,Weather View 32 v60,2013-01-16 01:27:00,
2013-01-15 17:32:00,49.7,30.3,30.36,SSE,155,4.0,10.0,47,0.00,,,-99.99,Weather View 32 v60,2013-01-16 01:32:00,
2013-01-15 17:42:00,49.2,30.8,30.36,SSE,161,3.0,10.0,49,0.00,,,-99.99,Weather View 32 v60,2013-01-16 01:42:00,
2013-01-15 17:47:00,48.9,30.5,30.36,SE,145,3.0,10.0,49,0.00,,,-99.99,Weather View 32 v60,2013-01-16 01:47:00,
2013-01-15 17:52:00,48.5,30.7,30.36,SE,130,3.0,10.0,50,0.00,,,-99.99,Weather View 32 v60,2013-01-16 01:52:00,
2013-01-15 17:57:00,48.3,31.0,30.37,SSE,150,3.0,10.0,51,0.00,,,-99.99,Weather View 32 v60,2013-01-16 01:57:00,
2013-01-15 18:02:00,48.0,31.2,30.37,SE,144,3.0,10.0,52,0.00,,,-99.99,Weather View 32 v60,2013-01-16 02:02:00,
2013-01-15 18:10:00,43.8,30.8,30.36,ESE,115,2.0,9.0,60,0.00,,,-99.99,Weather View 32 v60,2013-01-16 02:10:00,
2013-01-15 18:12:00,47.6,30.8,30.36,SE,137,4.0,8.0,52,0.00,,,-99.99,Weather View 32 v60,2013-01-16 02:12:00,
2013-01-15 18:17:00,47.3,31.0,30.37,ESE,120,5.0,9.0,53,0.00,,,-99.99,Weather View 32 v60,2013-01-16 02:17:00,
2013-01-15 18:22:00,47.1,30.8,30.37,ESE,114,5.0,9.0,53,0.00,,,-99.99,Weather View 32 v60,2013-01-16 02:22:00,
2013-01-15 18:32:00,46.6,30.8,30.36,SE,130,5.0,9.0,54,0.00,,,-99.99,Weather View 32 v60,2013-01-16 02:32:00,
2013-01-15 18:35:00,42.8,31.1,30.37,SE,136,1.0,7.0,63,0.00,,,-99.99,Weather View 32 v60,2013-01-16 02:35:00,
2013-01-15 18:37:00,46.4,30.6,30.36,SE,131,6.0,9.0,54,0.00,,,-99.99,Weather View 32 v60,2013-01-16 02:37:00,
2013-01-15 18:42:00,46.3,31.0,30.36,SE,126,2.0,9.0,55,0.00,,,-99.99,Weather View 32 v60,2013-01-16 02:42:00,
2013-01-15 18:52:00,45.5,30.7,30.36,SE,124,3.0,9.0,56,0.00,,,-99.99,Weather View 32 v60,2013-01-16 02:52:00,
2013-01-15 18:55:00,40.0,29.9,30.37,NNE,33,2.0,4.0,67,0.00,,,-99.99,Weather View 32 v60,2013-01-16 02:55:00,
2013-01-15 18:57:00,45.0,30.7,30.36,ESE,114,2.0,9.0,57,0.00,,,-99.99,Weather View 32 v60,2013-01-16 02:57:00,
2013-01-15 19:02:00,44.5,30.6,30.36,SE,128,3.0,9.0,58,0.00,,,-99.99,Weather View 32 v60,2013-01-16 03:02:00,
2013-01-15 19:07:00,44.1,30.7,30.36,ESE,112,2.0,9.0,59,0.00,,,-99.99,Weather View 32 v60,2013-01-16 03:07:00,
2013-01-15 19:12:00,43.8,30.8,30.36,ESE,115,2.0,9.0,60,0.00,,,-99.99,Weather View 32 v60,2013-01-16 03:12:00,
2013-01-15 19:22:00,43.3,30.7,30.36,SE,125,2.0,8.0,61,0.00,,,-99.99,Weather View 32 v60,2013-01-16 03:22:00,
2013-01-15 19:27:00,43.2,31.0,30.36,SE,133,3.0,8.0,62,0.00,,,-99.99,Weather View 32 v60,2013-01-16 03:27:00,
2013-01-15 19:32:00,43.1,30.9,30.36,SSE,149,2.0,8.0,62,0.00,,,-99.99,Weather View 32 v60,2013-01-16 03:32:00,
2013-01-15 19:42:00,42.3,31.0,30.37,SE,130,1.0,6.0,64,0.00,,,-99.99,Weather View 32 v60,2013-01-16 03:42:00,
2013-01-15 19:47:00,41.5,30.6,30.37,ESE,122,1.0,5.0,65,0.00,,,-99.99,Weather View 32 v60,2013-01-16 03:47:00,
2013-01-15 19:52:00,40.7,30.2,30.37,NNE,32,2.0,5.0,66,0.00,,,-99.99,Weather View 32 v60,2013-01-16 03:52:00,
2013-01-15 20:02:00,39.5,30.2,30.36,NE,34,2.0,4.0,69,0.00,,,-99.99,Weather View 32 v60,2013-01-16 04:02:00,
2013-01-15 20:05:00,37.2,30.3,30.36,NE,34,1.0,3.0,76,0.00,,,-99.99,Weather View 32 v60,2013-01-16 04:05:00,
2013-01-15 20:10:00,37.1,30.6,30.36,NE,40,0.0,3.0,77,0.00,,,-99.99,Weather View 32 v60,2013-01-16 04:10:00,
2013-01-15 20:12:00,38.7,29.8,30.36,ENE,71,2.0,4.0,70,0.00,,,-99.99,Weather View 32 v60,2013-01-16 04:12:00,
2013-01-15 20:15:00,37.1,30.6,30.36,North,356,1.0,3.0,77,0.00,,,-99.99,Weather View 32 v60,2013-01-16 04:15:00,
2013-01-15 20:18:00,38.6,30.0,30.36,ENE,60,2.0,3.0,71,0.00,,,-99.99,Weather View 32 v60,2013-01-16 04:18:00,
2013-01-15 20:20:00,37.1,30.6,30.36,NNW,338,1.0,3.0,77,0.00,,,-99.99,Weather View 32 v60,2013-01-16 04:20:00,
2013-01-15 20:25:00,37.0,30.5,30.36,North,9,1.0,3.0,77,0.00,,,-99.99,Weather View 32 v60,2013-01-16 04:25:00,
2013-01-15 20:27:00,38.0,30.1,30.36,NE,39,1.0,3.0,73,0.00,,,-99.99,Weather View 32 v60,2013-01-16 04:27:00,
2013-01-15 20:30:00,36.9,30.4,30.36,North,11,1.0,3.0,77,0.00,,,-99.99,Weather View 32 v60,2013-01-16 04:30:00,
2013-01-15 20:32:00,37.8,30.3,30.36,ENE,74,2.0,3.0,74,0.00,,,-99.99,Weather View 32 v60,2013-01-16 04:32:00,
2013-01-15 20:35:00,36.7,30.2,30.36,NE,34,1.0,3.0,77,0.00,,,-99.99,Weather View 32 v60,2013-01-16 04:35:00,
2013-01-15 20:37:00,37.7,30.2,30.36,NE,35,1.0,3.0,74,0.00,,,-99.99,Weather View 32 v60,2013-01-16 04:37:00,
2013-01-15 20:40:00,36.5,30.3,30.36,NE,34,1.0,3.0,78,0.00,,,-99.99,Weather View 32 v60,2013-01-16 04:40:00,
2013-01-15 20:42:00,37.3,29.8,30.36,NE,50,2.0,3.0,74,0.00,,,-99.99,Weather View 32 v60,2013-01-16 04:42:00,
2013-01-15 20:45:00,36.4,30.2,30.36,NE,49,2.0,3.0,78,0.00,,,-99.99,Weather View 32 v60,2013-01-16 04:45:00,
2013-01-15 20:50:00,36.0,29.8,30.36,NE,54,1.0,3.0,78,0.00,,,-99.99,Weather View 32 v60,2013-01-16 04:50:00,
2013-01-15 20:52:00,37.2,30.3,30.36,ENE,74,1.0,3.0,76,0.00,,,-99.99,Weather View 32 v60,2013-01-16 04:52:00,
2013-01-15 20:55:00,36.0,30.1,30.36,East,90,2.0,3.0,79,0.00,,,-99.99,Weather View 32 v60,2013-01-16 04:55:00,
2013-01-15 20:57:00,37.3,30.4,30.36,NE,40,1.0,3.0,76,0.00,,,-99.99,Weather View 32 v60,2013-01-16 04:57:00,
2013-01-15 21:00:00,35.9,30.0,30.36,East,83,2.0,3.0,79,0.00,,,-99.99,Weather View 32 v60,2013-01-16 05:00:00,
2013-01-15 21:05:00,35.8,30.2,30.36,East,84,1.0,3.0,80,0.00,,,-99.99,Weather View 32 v60,2013-01-16 05:05:00,
2013-01-15 21:10:00,35.5,29.9,30.36,NE,47,1.0,3.0,80,0.00,,,-99.99,Weather View 32 v60,2013-01-16 05:10:00,
2013-01-15 21:15:00,35.2,29.6,30.36,NE,45,1.0,3.0,80,0.00,,,-99.99,Weather View 32 v60,2013-01-16 05:15:00,
2013-01-15 21:20:00,35.0,29.8,30.36,North,356,0.0,2.0,81,0.00,,,-99.99,Weather View 32 v60,2013-01-16 05:20:00,
2013-01-15 21:25:00,34.9,29.7,30.36,NE,48,1.0,2.0,81,0.00,,,-99.99,Weather View 32 v60,2013-01-16 05:25:00,
2013-01-15 21:30:00,34.8,29.6,30.37,NNE,32,1.0,2.0,81,0.00,,,-99.99,Weather View 32 v60,2013-01-16 05:30:00,
2013-01-15 21:35:00,34.5,29.3,30.37,NNE,31,0.0,2.0,81,0.00,,,-99.99,Weather View 32 v60,2013-01-16 05:35:00,
2013-01-15 21:40:00,34.3,29.4,30.37,NW,321,2.0,2.0,82,0.00,,,-99.99,Weather View 32 v60,2013-01-16 05:40:00,
2013-01-15 21:45:00,34.4,29.5,30.37,NW,322,1.0,2.0,82,0.00,,,-99.99,Weather View 32 v60,2013-01-16 05:45:00,
2013-01-15 21:50:00,34.4,29.5,30.37,NW,324,1.0,2.0,82,0.00,,,-99.99,Weather View 32 v60,2013-01-16 05:50:00,
2013-01-15 21:55:00,34.2,29.3,30.36,NW,324,0.0,2.0,82,0.00,,,-99.99,Weather View 32 v60,2013-01-16 05:55:00,
2013-01-15 22:00:00,34.1,29.5,30.37,NW,324,0.0,2.0,83,0.00,,,-99.99,Weather View 32 v60,2013-01-16 06:00:00,
2013-01-15 22:05:00,34.0,29.4,30.36,NW,324,0.0,2.0,83,0.00,,,-99.99,Weather View 32 v60,2013-01-16 06:05:00,
2013-01-15 22:10:00,33.9,29.3,30.37,NW,324,0.0,2.0,83,0.00,,,-99.99,Weather View 32 v60,2013-01-16 06:10:00,
2013-01-15 22:15:00,33.8,29.2,30.37,NW,324,0.0,2.0,83,0.00,,,-99.99,Weather View 32 v60,2013-01-16 06:15:00,
2013-01-15 22:20:00,33.4,28.8,30.37,NW,324,0.0,2.0,83,0.00,,,-99.99,Weather View 32 v60,2013-01-16 06:20:00,
2013-01-15 22:25:00,33.7,29.7,30.37,NNE,25,0.0,2.0,85,0.00,,,-99.99,Weather View 32 v60,2013-01-16 06:25:00,
2013-01-15 22:30:00,33.6,29.3,30.37,NNW,329,0.0,2.0,84,0.00,,,-99.99,Weather View 32 v60,2013-01-16 06:30:00,
2013-01-15 22:35:00,33.7,29.7,30.37,ENE,77,1.0,2.0,85,0.00,,,-99.99,Weather View 32 v60,2013-01-16 06:35:00,
2013-01-15 22:40:00,33.7,29.7,30.38,ENE,77,0.0,2.0,85,0.00,,,-99.99,Weather View 32 v60,2013-01-16 06:40:00,
2013-01-15 22:45:00,33.4,29.1,30.38,ENE,77,0.0,2.0,84,0.00,,,-99.99,Weather View 32 v60,2013-01-16 06:45:00,
2013-01-15 22:50:00,33.5,29.5,30.37,ENE,77,0.0,2.0,85,0.00,,,-99.99,Weather View 32 v60,2013-01-16 06:50:00,
2013-01-15 22:55:00,33.4,29.4,30.37,ENE,77,0.0,2.0,85,0.00,,,-99.99,Weather View 32 v60,2013-01-16 06:55:00,
2013-01-15 23:00:00,33.2,29.2,30.38,NE,45,0.0,2.0,85,0.00,,,-99.99,Weather View 32 v60,2013-01-16 07:00:00,
2013-01-15 23:05:00,33.1,29.1,30.38,ENE,61,1.0,3.0,85,0.00,,,-99.99,Weather View 32 v60,2013-01-16 07:05:00,
2013-01-15 23:10:00,32.9,28.9,30.38,NE,34,1.0,3.0,85,0.00,,,-99.99,Weather View 32 v60,2013-01-16 07:10:00,
2013-01-15 23:15:00,32.8,28.8,30.37,ENE,63,2.0,3.0,85,0.00,,,-99.99,Weather View 32 v60,2013-01-16 07:15:00,
2013-01-15 23:20:00,32.7,29.0,30.37,NE,50,0.0,3.0,86,0.00,,,-99.99,Weather View 32 v60,2013-01-16 07:20:00,
2013-01-15 23:25:00,32.4,28.4,30.38,NE,50,0.0,3.0,85,0.00,,,-99.99,Weather View 32 v60,2013-01-16 07:25:00,
2013-01-15 23:30:00,32.3,28.6,30.38,NE,50,0.0,3.0,86,0.00,,,-99.99,Weather View 32 v60,2013-01-16 07:30:00,
2013-01-15 23:35:00,32.3,28.6,30.38,WNW,284,2.0,3.0,86,0.00,,,-99.99,Weather View 32 v60,2013-01-16 07:35:00,
2013-01-15 23:40:00,32.3,28.6,30.38,SSW,204,1.0,3.0,86,0.00,,,-99.99,Weather View 32 v60,2013-01-16 07:40:00,
2013-01-15 23:45:00,32.5,29.1,30.39,SW,222,1.0,3.0,87,0.00,,,-99.99,Weather View 32 v60,2013-01-16 07:45:00,
2013-01-15 23:50:00,32.6,29.2,30.39,WSW,246,1.0,3.0,87,0.00,,,-99.99,Weather View 32 v60,2013-01-16 07:50:00,
2013-01-15 23:55:00,32.7,29.3,30.39,NNE,27,1.0,3.0,87,0.00,,,-99.99,Weather View 32 v60,2013-01-16 07:55:00,